sensor_id;sensor_type;location;lat;lon;timestamp;pressure;altitude;pressure_sealevel;temperature;humidity
70141;BME280;57508;43.086;0.136;2022-07-22T00:02:21;96008.84;;;31.45;38.04
70141;BME280;57508;43.086;0.136;2022-07-22T00:04:46;96003.44;;;31.41;38.23
70141;BME280;57508;43.086;0.136;2022-07-22T00:07:11;95999.78;;;31.48;38.50
70141;BME280;57508;43.086;0.136;2022-07-22T00:09:38;96005.91;;;31.32;38.17
70141;BME280;57508;43.086;0.136;2022-07-22T00:12:03;96008.72;;;31.04;39.36
70141;BME280;57508;43.086;0.136;2022-07-22T00:14:29;96012.97;;;31.05;39.69
70141;BME280;57508;43.086;0.136;2022-07-22T00:16:54;96012.41;;;31.18;39.22
70141;BME280;57508;43.086;0.136;2022-07-22T00:19:19;96008.22;;;31.34;38.61
70141;BME280;57508;43.086;0.136;2022-07-22T00:21:44;95986.94;;;31.25;39.01
70141;BME280;57508;43.086;0.136;2022-07-22T00:24:10;96005.03;;;31.15;38.86
70141;BME280;57508;43.086;0.136;2022-07-22T00:26:35;96007.91;;;31.08;38.92
70141;BME280;57508;43.086;0.136;2022-07-22T00:29:00;96007.78;;;31.15;38.61
70141;BME280;57508;43.086;0.136;2022-07-22T00:31:25;96006.53;;;31.19;38.52
70141;BME280;57508;43.086;0.136;2022-07-22T00:33:51;96012.97;;;31.29;38.18
70141;BME280;57508;43.086;0.136;2022-07-22T00:36:16;96014.91;;;30.85;40.09
70141;BME280;57508;43.086;0.136;2022-07-22T00:38:41;96021.22;;;30.23;41.39
70141;BME280;57508;43.086;0.136;2022-07-22T00:41:07;96019.34;;;30.71;39.86
70141;BME280;57508;43.086;0.136;2022-07-22T00:43:51;96017.63;;;30.85;40.01
70141;BME280;57508;43.086;0.136;2022-07-22T00:46:17;96009.00;;;31.10;39.31
70141;BME280;57508;43.086;0.136;2022-07-22T00:48:43;96017.84;;;31.18;38.93
70141;BME280;57508;43.086;0.136;2022-07-22T00:51:08;96014.44;;;31.14;38.73
70141;BME280;57508;43.086;0.136;2022-07-22T00:53:33;96018.94;;;31.00;39.64
70141;BME280;57508;43.086;0.136;2022-07-22T00:55:59;96020.25;;;30.92;39.81
70141;BME280;57508;43.086;0.136;2022-07-22T00:58:24;96018.41;;;30.54;39.82
70141;BME280;57508;43.086;0.136;2022-07-22T01:00:50;96016.22;;;30.73;39.48
70141;BME280;57508;43.086;0.136;2022-07-22T01:03:15;96009.56;;;30.77;40.14
70141;BME280;57508;43.086;0.136;2022-07-22T01:05:41;96007.97;;;30.80;39.85
70141;BME280;57508;43.086;0.136;2022-07-22T01:08:07;96007.88;;;30.84;39.07
70141;BME280;57508;43.086;0.136;2022-07-22T01:10:32;96005.97;;;30.80;40.01
70141;BME280;57508;43.086;0.136;2022-07-22T01:12:57;96016.44;;;30.86;39.83
70141;BME280;57508;43.086;0.136;2022-07-22T01:15:23;96011.44;;;30.80;39.79
70141;BME280;57508;43.086;0.136;2022-07-22T01:17:48;96008.28;;;30.82;40.04
70141;BME280;57508;43.086;0.136;2022-07-22T01:20:13;96011.84;;;30.79;40.05
70141;BME280;57508;43.086;0.136;2022-07-22T01:22:39;95994.97;;;30.60;39.94
70141;BME280;57508;43.086;0.136;2022-07-22T01:25:04;96003.94;;;30.61;40.27
70141;BME280;57508;43.086;0.136;2022-07-22T01:27:30;96003.94;;;30.61;39.35
70141;BME280;57508;43.086;0.136;2022-07-22T01:29:55;96002.94;;;30.47;40.15
70141;BME280;57508;43.086;0.136;2022-07-22T01:32:20;95996.63;;;30.54;40.01
70141;BME280;57508;43.086;0.136;2022-07-22T01:34:46;95988.03;;;30.55;39.94
70141;BME280;57508;43.086;0.136;2022-07-22T01:37:11;95988.28;;;30.65;39.71
70141;BME280;57508;43.086;0.136;2022-07-22T01:39:36;95994.88;;;30.40;40.74
70141;BME280;57508;43.086;0.136;2022-07-22T01:42:02;95980.94;;;30.62;40.49
70141;BME280;57508;43.086;0.136;2022-07-22T01:44:27;95982.41;;;30.66;40.83
70141;BME280;57508;43.086;0.136;2022-07-22T01:46:54;95981.63;;;30.66;40.29
70141;BME280;57508;43.086;0.136;2022-07-22T01:49:20;95977.19;;;30.52;40.03
70141;BME280;57508;43.086;0.136;2022-07-22T01:51:46;95980.66;;;30.52;40.22
70141;BME280;57508;43.086;0.136;2022-07-22T01:54:11;95983.38;;;30.52;39.97
70141;BME280;57508;43.086;0.136;2022-07-22T01:56:37;95983.38;;;30.52;40.20
70141;BME280;57508;43.086;0.136;2022-07-22T01:59:02;95984.84;;;30.61;40.34
70141;BME280;57508;43.086;0.136;2022-07-22T02:01:27;95983.31;;;30.60;40.22
70141;BME280;57508;43.086;0.136;2022-07-22T02:03:53;95983.31;;;30.60;40.48
70141;BME280;57508;43.086;0.136;2022-07-22T02:06:18;95983.75;;;30.54;40.59
70141;BME280;57508;43.086;0.136;2022-07-22T02:08:43;95986.63;;;30.43;40.61
70141;BME280;57508;43.086;0.136;2022-07-22T02:11:09;95983.59;;;30.38;40.88
70141;BME280;57508;43.086;0.136;2022-07-22T02:13:34;95986.63;;;30.43;41.70
70141;BME280;57508;43.086;0.136;2022-07-22T02:15:59;95992.00;;;30.51;40.72
70141;BME280;57508;43.086;0.136;2022-07-22T02:18:24;95994.28;;;30.52;40.86
70141;BME280;57508;43.086;0.136;2022-07-22T02:20:50;95997.03;;;30.52;41.42
70141;BME280;57508;43.086;0.136;2022-07-22T02:23:16;95984.25;;;30.49;41.30
70141;BME280;57508;43.086;0.136;2022-07-22T02:25:41;95994.94;;;30.64;40.98
70141;BME280;57508;43.086;0.136;2022-07-22T02:28:07;95992.91;;;30.68;41.93
70141;BME280;57508;43.086;0.136;2022-07-22T02:30:32;95993.38;;;30.63;41.33
70141;BME280;57508;43.086;0.136;2022-07-22T02:32:58;95985.94;;;30.67;42.04
70141;BME280;57508;43.086;0.136;2022-07-22T02:35:23;95989.47;;;30.64;41.58
70141;BME280;57508;43.086;0.136;2022-07-22T02:37:49;95992.63;;;30.35;41.98
70141;BME280;57508;43.086;0.136;2022-07-22T02:40:14;95989.81;;;30.42;41.64
70141;BME280;57508;43.086;0.136;2022-07-22T02:42:40;95988.25;;;30.41;42.29
70141;BME280;57508;43.086;0.136;2022-07-22T02:45:05;95984.69;;;30.44;41.66
70141;BME280;57508;43.086;0.136;2022-07-22T02:47:31;95997.97;;;30.42;42.00
70141;BME280;57508;43.086;0.136;2022-07-22T02:49:56;95991.22;;;30.50;41.18
70141;BME280;57508;43.086;0.136;2022-07-22T02:52:21;95985.78;;;30.50;41.27
70141;BME280;57508;43.086;0.136;2022-07-22T02:54:47;95986.56;;;30.51;42.01
70141;BME280;57508;43.086;0.136;2022-07-22T02:57:12;95985.38;;;30.52;41.16
70141;BME280;57508;43.086;0.136;2022-07-22T02:59:37;95993.59;;;30.48;41.75
70141;BME280;57508;43.086;0.136;2022-07-22T03:02:03;95992.16;;;30.40;42.13
70141;BME280;57508;43.086;0.136;2022-07-22T03:04:28;95992.25;;;30.33;41.48
70141;BME280;57508;43.086;0.136;2022-07-22T03:06:54;95998.31;;;30.16;42.52
70141;BME280;57508;43.086;0.136;2022-07-22T03:09:19;95999.44;;;30.19;41.83
70141;BME280;57508;43.086;0.136;2022-07-22T03:11:44;95993.28;;;30.11;42.52
70141;BME280;57508;43.086;0.136;2022-07-22T03:14:10;95995.59;;;30.13;42.59
70141;BME280;57508;43.086;0.136;2022-07-22T03:16:35;95999.72;;;29.93;42.97
70141;BME280;57508;43.086;0.136;2022-07-22T03:19:00;96006.78;;;29.91;43.89
70141;BME280;57508;43.086;0.136;2022-07-22T03:21:25;96000.31;;;29.39;44.72
70141;BME280;57508;43.086;0.136;2022-07-22T03:23:51;96005.34;;;29.79;44.48
70141;BME280;57508;43.086;0.136;2022-07-22T03:26:19;96012.50;;;30.00;43.09
70141;BME280;57508;43.086;0.136;2022-07-22T03:28:44;96007.09;;;29.97;44.35
70141;BME280;57508;43.086;0.136;2022-07-22T03:31:09;96019.50;;;30.01;44.43
70141;BME280;57508;43.086;0.136;2022-07-22T03:33:35;96012.94;;;29.95;44.56
70141;BME280;57508;43.086;0.136;2022-07-22T03:36:00;96007.69;;;30.12;44.11
70141;BME280;57508;43.086;0.136;2022-07-22T03:38:25;96019.34;;;29.81;44.83
70141;BME280;57508;43.086;0.136;2022-07-22T03:40:50;96019.41;;;30.40;42.71
70141;BME280;57508;43.086;0.136;2022-07-22T03:43:16;96020.44;;;30.22;43.34
70141;BME280;57508;43.086;0.136;2022-07-22T03:45:41;96020.44;;;30.22;44.21
70141;BME280;57508;43.086;0.136;2022-07-22T03:48:06;96029.69;;;30.28;44.09
70141;BME280;57508;43.086;0.136;2022-07-22T03:50:32;96025.81;;;29.95;44.54
70141;BME280;57508;43.086;0.136;2022-07-22T03:52:57;96034.56;;;28.87;47.16
70141;BME280;57508;43.086;0.136;2022-07-22T03:55:22;96030.75;;;29.30;45.53
70141;BME280;57508;43.086;0.136;2022-07-22T03:57:47;96040.22;;;29.11;46.81
70141;BME280;57508;43.086;0.136;2022-07-22T04:00:13;96045.22;;;29.62;45.73
70141;BME280;57508;43.086;0.136;2022-07-22T04:02:38;96040.00;;;30.10;44.64
70141;BME280;57508;43.086;0.136;2022-07-22T04:05:03;96038.69;;;29.52;45.12
70141;BME280;57508;43.086;0.136;2022-07-22T04:07:29;96051.41;;;29.66;45.46
70141;BME280;57508;43.086;0.136;2022-07-22T04:09:54;96046.28;;;28.76;47.12
70141;BME280;57508;43.086;0.136;2022-07-22T04:12:31;96052.50;;;28.73;47.94
70141;BME280;57508;43.086;0.136;2022-07-22T04:14:56;96047.66;;;29.49;45.53
70141;BME280;57508;43.086;0.136;2022-07-22T04:17:21;96053.13;;;29.03;46.85
70141;BME280;57508;43.086;0.136;2022-07-22T04:19:46;96067.53;;;28.89;46.74
70141;BME280;57508;43.086;0.136;2022-07-22T04:22:12;96053.31;;;29.23;46.32
70141;BME280;57508;43.086;0.136;2022-07-22T04:24:37;96063.59;;;29.50;45.21
70141;BME280;57508;43.086;0.136;2022-07-22T04:27:02;96063.09;;;29.63;45.68
70141;BME280;57508;43.086;0.136;2022-07-22T04:29:28;96063.59;;;29.50;45.33
70141;BME280;57508;43.086;0.136;2022-07-22T04:31:53;96059.97;;;29.64;44.28
70141;BME280;57508;43.086;0.136;2022-07-22T04:34:18;96061.22;;;29.52;45.37
70141;BME280;57508;43.086;0.136;2022-07-22T04:36:43;96067.19;;;29.82;44.54
70141;BME280;57508;43.086;0.136;2022-07-22T04:39:08;96065.47;;;29.61;44.81
70141;BME280;57508;43.086;0.136;2022-07-22T04:41:34;96067.13;;;29.47;46.13
70141;BME280;57508;43.086;0.136;2022-07-22T04:43:59;96069.56;;;29.76;45.24
70141;BME280;57508;43.086;0.136;2022-07-22T04:46:24;96062.66;;;30.03;44.59
70141;BME280;57508;43.086;0.136;2022-07-22T04:48:49;96067.44;;;29.95;44.79
70141;BME280;57508;43.086;0.136;2022-07-22T04:51:15;96070.72;;;30.14;43.37
70141;BME280;57508;43.086;0.136;2022-07-22T04:53:40;96067.69;;;30.39;42.95
70141;BME280;57508;43.086;0.136;2022-07-22T04:56:05;96065.72;;;30.09;44.24
70141;BME280;57508;43.086;0.136;2022-07-22T04:58:31;96080.47;;;29.76;44.41
70141;BME280;57508;43.086;0.136;2022-07-22T05:00:56;96081.34;;;30.04;44.05
70141;BME280;57508;43.086;0.136;2022-07-22T05:03:21;96085.16;;;30.11;44.37
70141;BME280;57508;43.086;0.136;2022-07-22T05:05:49;96082.44;;;30.11;44.49
70141;BME280;57508;43.086;0.136;2022-07-22T05:08:14;96084.22;;;30.56;43.01
70141;BME280;57508;43.086;0.136;2022-07-22T05:10:40;96081.41;;;30.32;43.26
70141;BME280;57508;43.086;0.136;2022-07-22T05:13:05;96085.00;;;30.57;42.68
70141;BME280;57508;43.086;0.136;2022-07-22T05:15:30;96080.25;;;30.33;42.79
70141;BME280;57508;43.086;0.136;2022-07-22T05:17:56;96081.31;;;30.71;42.03
70141;BME280;57508;43.086;0.136;2022-07-22T05:20:21;96080.31;;;30.57;42.86
70141;BME280;57508;43.086;0.136;2022-07-22T05:22:46;96078.75;;;30.87;42.15
70141;BME280;57508;43.086;0.136;2022-07-22T05:25:11;96083.03;;;30.57;42.47
70141;BME280;57508;43.086;0.136;2022-07-22T05:27:37;96088.69;;;30.42;43.13
70141;BME280;57508;43.086;0.136;2022-07-22T05:30:02;96087.66;;;30.64;42.21
70141;BME280;57508;43.086;0.136;2022-07-22T05:32:27;96089.47;;;30.43;42.63
70141;BME280;57508;43.086;0.136;2022-07-22T05:34:53;96082.63;;;30.90;41.56
70141;BME280;57508;43.086;0.136;2022-07-22T05:37:18;96079.47;;;30.91;42.26
70141;BME280;57508;43.086;0.136;2022-07-22T05:39:43;96080.03;;;31.06;41.87
70141;BME280;57508;43.086;0.136;2022-07-22T05:42:09;96079.53;;;30.88;42.51
70141;BME280;57508;43.086;0.136;2022-07-22T05:44:34;96078.44;;;31.09;41.73
70141;BME280;57508;43.086;0.136;2022-07-22T05:46:59;96080.94;;;31.24;41.09
70141;BME280;57508;43.086;0.136;2022-07-22T05:49:25;96071.47;;;31.04;41.73
70141;BME280;57508;43.086;0.136;2022-07-22T05:51:51;96072.25;;;31.05;41.45
70141;BME280;57508;43.086;0.136;2022-07-22T05:54:17;96067.97;;;30.80;42.82
70141;BME280;57508;43.086;0.136;2022-07-22T05:56:42;96072.41;;;30.94;42.53
70141;BME280;57508;43.086;0.136;2022-07-22T05:59:07;96073.91;;;30.99;42.56
70141;BME280;57508;43.086;0.136;2022-07-22T06:01:32;96072.97;;;31.33;41.62
70141;BME280;57508;43.086;0.136;2022-07-22T06:03:58;96074.78;;;31.43;40.92
70141;BME280;57508;43.086;0.136;2022-07-22T06:06:23;96074.91;;;31.09;41.55
70141;BME280;57508;43.086;0.136;2022-07-22T06:08:48;96082.25;;;31.15;42.25
70141;BME280;57508;43.086;0.136;2022-07-22T06:11:14;96077.53;;;31.16;41.53
70141;BME280;57508;43.086;0.136;2022-07-22T06:13:39;96068.19;;;31.41;41.10
70141;BME280;57508;43.086;0.136;2022-07-22T06:16:04;96065.31;;;31.48;41.08
70141;BME280;57508;43.086;0.136;2022-07-22T06:18:30;96072.69;;;31.27;42.20
70141;BME280;57508;43.086;0.136;2022-07-22T06:20:55;96072.88;;;31.40;41.87
70141;BME280;57508;43.086;0.136;2022-07-22T06:23:22;96075.91;;;31.46;40.98
70141;BME280;57508;43.086;0.136;2022-07-22T06:25:48;96075.31;;;31.35;41.61
70141;BME280;57508;43.086;0.136;2022-07-22T06:28:13;96076.38;;;31.41;41.54
70141;BME280;57508;43.086;0.136;2022-07-22T06:30:38;96066.34;;;31.34;41.70
70141;BME280;57508;43.086;0.136;2022-07-22T06:33:04;96069.69;;;31.66;41.35
70141;BME280;57508;43.086;0.136;2022-07-22T06:35:29;96073.09;;;31.50;42.22
70141;BME280;57508;43.086;0.136;2022-07-22T06:37:55;96076.13;;;31.08;42.08
70141;BME280;57508;43.086;0.136;2022-07-22T06:40:20;96073.94;;;31.47;42.04
70141;BME280;57508;43.086;0.136;2022-07-22T06:42:45;96076.06;;;31.59;42.11
70141;BME280;57508;43.086;0.136;2022-07-22T06:45:11;96080.69;;;31.62;42.07
70141;BME280;57508;43.086;0.136;2022-07-22T06:47:36;96082.31;;;31.60;41.87
70141;BME280;57508;43.086;0.136;2022-07-22T06:50:05;96078.41;;;31.37;42.40
70141;BME280;57508;43.086;0.136;2022-07-22T06:52:31;96085.59;;;31.23;42.29
70141;BME280;57508;43.086;0.136;2022-07-22T06:54:56;96089.50;;;30.98;43.34
70141;BME280;57508;43.086;0.136;2022-07-22T06:57:21;96079.25;;;30.51;43.67
70141;BME280;57508;43.086;0.136;2022-07-22T06:59:47;96084.25;;;30.84;44.05
70141;BME280;57508;43.086;0.136;2022-07-22T07:02:12;96086.78;;;30.98;43.93
70141;BME280;57508;43.086;0.136;2022-07-22T07:04:37;96087.53;;;31.50;42.46
70141;BME280;57508;43.086;0.136;2022-07-22T07:07:03;96090.50;;;31.60;42.84
70141;BME280;57508;43.086;0.136;2022-07-22T07:09:28;96095.47;;;31.65;42.62
70141;BME280;57508;43.086;0.136;2022-07-22T07:11:54;96099.69;;;31.46;42.23
70141;BME280;57508;43.086;0.136;2022-07-22T07:14:19;96107.03;;;30.70;43.65
70141;BME280;57508;43.086;0.136;2022-07-22T07:16:44;96099.50;;;30.50;44.86
70141;BME280;57508;43.086;0.136;2022-07-22T07:19:10;96104.44;;;30.90;44.23
70141;BME280;57508;43.086;0.136;2022-07-22T07:21:35;96108.91;;;30.45;44.24
70141;BME280;57508;43.086;0.136;2022-07-22T07:24:00;96113.34;;;30.63;43.34
70141;BME280;57508;43.086;0.136;2022-07-22T07:26:26;96111.97;;;30.16;45.42
70141;BME280;57508;43.086;0.136;2022-07-22T07:28:51;96113.19;;;29.73;46.26
70141;BME280;57508;43.086;0.136;2022-07-22T07:31:17;96122.72;;;30.30;44.09
70141;BME280;57508;43.086;0.136;2022-07-22T07:33:42;96123.47;;;30.35;44.45
70141;BME280;57508;43.086;0.136;2022-07-22T07:36:07;96124.94;;;30.71;43.99
70141;BME280;57508;43.086;0.136;2022-07-22T07:38:33;96126.72;;;30.22;45.34
70141;BME280;57508;43.086;0.136;2022-07-22T07:40:59;96132.69;;;30.45;44.58
70141;BME280;57508;43.086;0.136;2022-07-22T07:43:24;96128.03;;;30.07;44.62
70141;BME280;57508;43.086;0.136;2022-07-22T07:45:49;96139.53;;;30.25;44.28
70141;BME280;57508;43.086;0.136;2022-07-22T07:48:15;96139.34;;;29.63;46.52
70141;BME280;57508;43.086;0.136;2022-07-22T07:50:40;96136.56;;;30.09;45.54
70141;BME280;57508;43.086;0.136;2022-07-22T07:53:05;96138.66;;;30.63;43.94
70141;BME280;57508;43.086;0.136;2022-07-22T07:55:31;96141.81;;;30.62;43.86
70141;BME280;57508;43.086;0.136;2022-07-22T07:57:57;96137.44;;;30.37;43.92
70141;BME280;57508;43.086;0.136;2022-07-22T08:00:23;96151.34;;;30.46;44.07
70141;BME280;57508;43.086;0.136;2022-07-22T08:02:49;96147.56;;;30.99;42.68
70141;BME280;57508;43.086;0.136;2022-07-22T08:05:15;96141.47;;;30.60;43.43
70141;BME280;57508;43.086;0.136;2022-07-22T08:07:40;96144.31;;;30.10;44.01
70141;BME280;57508;43.086;0.136;2022-07-22T08:10:06;96148.25;;;30.05;44.98
70141;BME280;57508;43.086;0.136;2022-07-22T08:12:31;96139.34;;;30.40;43.29
70141;BME280;57508;43.086;0.136;2022-07-22T08:14:56;96139.19;;;30.20;43.93
70141;BME280;57508;43.086;0.136;2022-07-22T08:17:22;96141.78;;;30.65;43.23
70141;BME280;57508;43.086;0.136;2022-07-22T08:19:47;96137.31;;;30.48;43.25
70141;BME280;57508;43.086;0.136;2022-07-22T08:22:12;96142.22;;;29.87;44.33
70141;BME280;57508;43.086;0.136;2022-07-22T08:24:37;96134.50;;;29.82;45.14
70141;BME280;57508;43.086;0.136;2022-07-22T08:27:03;96140.38;;;30.18;43.90
70141;BME280;57508;43.086;0.136;2022-07-22T08:29:28;96142.69;;;29.82;45.20
70141;BME280;57508;43.086;0.136;2022-07-22T08:31:53;96146.56;;;30.23;43.48
70141;BME280;57508;43.086;0.136;2022-07-22T08:34:18;96146.31;;;30.06;44.20
70141;BME280;57508;43.086;0.136;2022-07-22T08:36:44;96157.59;;;30.08;44.53
70141;BME280;57508;43.086;0.136;2022-07-22T08:39:09;96160.09;;;29.91;45.23
70141;BME280;57508;43.086;0.136;2022-07-22T08:41:36;96162.34;;;30.39;43.22
70141;BME280;57508;43.086;0.136;2022-07-22T08:44:02;96163.59;;;30.30;44.01
70141;BME280;57508;43.086;0.136;2022-07-22T08:46:28;96159.63;;;29.97;44.56
70141;BME280;57508;43.086;0.136;2022-07-22T08:48:53;96162.03;;;29.91;43.91
70141;BME280;57508;43.086;0.136;2022-07-22T08:51:20;96164.44;;;29.85;43.91
70141;BME280;57508;43.086;0.136;2022-07-22T08:53:45;96161.97;;;29.98;43.73
70141;BME280;57508;43.086;0.136;2022-07-22T08:56:11;96164.56;;;29.71;45.45
70141;BME280;57508;43.086;0.136;2022-07-22T08:58:37;96170.22;;;30.33;44.18
70141;BME280;57508;43.086;0.136;2022-07-22T09:01:09;96166.25;;;30.69;42.45
70141;BME280;57508;43.086;0.136;2022-07-22T09:03:43;96172.16;;;30.95;41.65
70141;BME280;57508;43.086;0.136;2022-07-22T09:06:09;96172.44;;;31.60;41.49
70141;BME280;57508;43.086;0.136;2022-07-22T09:08:49;96172.66;;;31.69;40.50
70141;BME280;57508;43.086;0.136;2022-07-22T09:11:15;96171.41;;;31.98;39.24
70141;BME280;57508;43.086;0.136;2022-07-22T09:13:42;96181.09;;;32.02;39.61
70141;BME280;57508;43.086;0.136;2022-07-22T09:16:08;96174.50;;;30.97;41.41
70141;BME280;57508;43.086;0.136;2022-07-22T09:18:49;96165.75;;;31.09;41.13
70141;BME280;57508;43.086;0.136;2022-07-22T09:21:14;96176.56;;;31.68;40.20
70141;BME280;57508;43.086;0.136;2022-07-22T09:23:40;96184.72;;;31.72;40.22
70141;BME280;57508;43.086;0.136;2022-07-22T09:26:06;96182.94;;;31.34;40.42
70141;BME280;57508;43.086;0.136;2022-07-22T09:28:32;96183.13;;;31.74;40.53
70141;BME280;57508;43.086;0.136;2022-07-22T09:30:57;96190.28;;;31.88;39.86
70141;BME280;57508;43.086;0.136;2022-07-22T09:33:22;96181.66;;;32.14;39.08
70141;BME280;57508;43.086;0.136;2022-07-22T09:35:48;96183.13;;;32.79;38.31
70141;BME280;57508;43.086;0.136;2022-07-22T09:38:14;96199.44;;;31.78;40.42
70141;BME280;57508;43.086;0.136;2022-07-22T09:40:41;96198.13;;;32.10;39.08
70141;BME280;57508;43.086;0.136;2022-07-22T09:43:07;96195.53;;;32.03;39.86
70141;BME280;57508;43.086;0.136;2022-07-22T09:45:43;96195.88;;;32.05;40.24
70141;BME280;57508;43.086;0.136;2022-07-22T09:48:09;96187.50;;;32.77;38.29
70141;BME280;57508;43.086;0.136;2022-07-22T09:50:34;96197.00;;;32.52;38.63
70141;BME280;57508;43.086;0.136;2022-07-22T09:53:00;96200.94;;;32.27;39.43
70141;BME280;57508;43.086;0.136;2022-07-22T09:55:26;96199.06;;;32.85;38.04
70141;BME280;57508;43.086;0.136;2022-07-22T09:57:52;96204.47;;;33.08;37.63
70141;BME280;57508;43.086;0.136;2022-07-22T10:00:19;96203.59;;;32.75;38.01
70141;BME280;57508;43.086;0.136;2022-07-22T10:02:49;96206.41;;;32.27;38.79
70141;BME280;57508;43.086;0.136;2022-07-22T10:05:15;96209.47;;;32.09;39.34
70141;BME280;57508;43.086;0.136;2022-07-22T10:07:41;96203.44;;;32.62;38.55
70141;BME280;57508;43.086;0.136;2022-07-22T10:10:07;96206.66;;;32.77;37.99
70141;BME280;57508;43.086;0.136;2022-07-22T10:12:34;96222.56;;;32.62;38.34
70141;BME280;57508;43.086;0.136;2022-07-22T10:15:01;96215.19;;;32.99;37.74
70141;BME280;57508;43.086;0.136;2022-07-22T10:17:26;96218.41;;;32.13;39.36
70141;BME280;57508;43.086;0.136;2022-07-22T10:19:52;96216.28;;;33.22;37.48
70141;BME280;57508;43.086;0.136;2022-07-22T10:25:01;96224.84;;;32.67;38.33
70141;BME280;57508;43.086;0.136;2022-07-22T10:30:11;96216.53;;;33.11;37.65
70141;BME280;57508;43.086;0.136;2022-07-22T10:32:37;96219.25;;;33.11;37.62
70141;BME280;57508;43.086;0.136;2022-07-22T10:40:19;96220.31;;;33.34;36.67
70141;BME280;57508;43.086;0.136;2022-07-22T10:45:28;96233.22;;;32.76;37.94
70141;BME280;57508;43.086;0.136;2022-07-22T10:47:55;96228.88;;;32.99;37.69
70141;BME280;57508;43.086;0.136;2022-07-22T10:53:08;96233.19;;;31.91;39.55
70141;BME280;57508;43.086;0.136;2022-07-22T10:55:34;96228.72;;;32.25;39.67
70141;BME280;57508;43.086;0.136;2022-07-22T10:58:00;96224.06;;;32.66;38.92
70141;BME280;57508;43.086;0.136;2022-07-22T11:00:25;96231.19;;;33.38;37.11
70141;BME280;57508;43.086;0.136;2022-07-22T11:02:51;96226.16;;;33.53;37.46
70141;BME280;57508;43.086;0.136;2022-07-22T11:05:26;96220.81;;;33.45;36.92
70141;BME280;57508;43.086;0.136;2022-07-22T11:07:51;96225.78;;;33.17;37.46
70141;BME280;57508;43.086;0.136;2022-07-22T11:10:18;96229.59;;;33.03;37.16
70141;BME280;57508;43.086;0.136;2022-07-22T11:12:44;96229.75;;;32.55;38.74
70141;BME280;57508;43.086;0.136;2022-07-22T11:15:10;96221.38;;;33.03;37.80
70141;BME280;57508;43.086;0.136;2022-07-22T11:17:36;96221.09;;;33.35;37.65
70141;BME280;57508;43.086;0.136;2022-07-22T11:20:02;96221.34;;;34.07;35.95
70141;BME280;57508;43.086;0.136;2022-07-22T11:22:29;96224.50;;;34.22;35.43
70141;BME280;57508;43.086;0.136;2022-07-22T11:24:54;96219.78;;;34.52;35.28
70141;BME280;57508;43.086;0.136;2022-07-22T11:27:21;96229.31;;;34.18;35.00
70141;BME280;57508;43.086;0.136;2022-07-22T11:29:51;96232.97;;;34.28;35.11
70141;BME280;57508;43.086;0.136;2022-07-22T11:32:17;96226.22;;;33.49;36.79
70141;BME280;57508;43.086;0.136;2022-07-22T11:34:44;96236.66;;;33.38;37.28
70141;BME280;57508;43.086;0.136;2022-07-22T11:37:13;96229.59;;;33.03;38.11
70141;BME280;57508;43.086;0.136;2022-07-22T11:39:38;96237.72;;;32.46;39.78
70141;BME280;57508;43.086;0.136;2022-07-22T11:42:04;96237.69;;;32.50;39.75
70141;BME280;57508;43.086;0.136;2022-07-22T11:44:31;96244.59;;;32.54;39.59
70141;BME280;57508;43.086;0.136;2022-07-22T11:46:56;96251.63;;;31.60;41.19
70141;BME280;57508;43.086;0.136;2022-07-22T11:49:24;96246.91;;;31.36;41.29
70141;BME280;57508;43.086;0.136;2022-07-22T11:51:50;96248.94;;;30.97;41.48
70141;BME280;57508;43.086;0.136;2022-07-22T11:54:16;96251.13;;;30.78;41.92
70141;BME280;57508;43.086;0.136;2022-07-22T11:56:41;96249.34;;;30.96;41.43
70141;BME280;57508;43.086;0.136;2022-07-22T11:59:07;96245.91;;;31.19;40.44
70141;BME280;57508;43.086;0.136;2022-07-22T12:01:34;96246.66;;;30.57;42.06
70141;BME280;57508;43.086;0.136;2022-07-22T12:04:04;96249.63;;;30.70;42.10
70141;BME280;57508;43.086;0.136;2022-07-22T12:06:30;96250.66;;;31.15;41.53
70141;BME280;57508;43.086;0.136;2022-07-22T12:09:08;96248.75;;;31.43;40.87
70141;BME280;57508;43.086;0.136;2022-07-22T12:11:35;96245.41;;;32.07;39.96
70141;BME280;57508;43.086;0.136;2022-07-22T12:14:05;96246.66;;;32.91;38.01
70141;BME280;57508;43.086;0.136;2022-07-22T12:16:31;96234.22;;;32.86;38.38
70141;BME280;57508;43.086;0.136;2022-07-22T12:18:57;96252.44;;;32.93;38.05
70141;BME280;57508;43.086;0.136;2022-07-22T12:21:23;96256.19;;;32.62;38.56
70141;BME280;57508;43.086;0.136;2022-07-22T12:23:55;96250.41;;;33.17;37.61
70141;BME280;57508;43.086;0.136;2022-07-22T12:26:36;96252.84;;;33.12;37.74
70141;BME280;57508;43.086;0.136;2022-07-22T12:31:45;96256.13;;;32.66;38.59
70141;BME280;57508;43.086;0.136;2022-07-22T12:34:11;96259.00;;;32.35;39.46
70141;BME280;57508;43.086;0.136;2022-07-22T12:36:37;96266.84;;;32.32;39.12
70141;BME280;57508;43.086;0.136;2022-07-22T12:39:15;96265.66;;;32.57;39.40
70141;BME280;57508;43.086;0.136;2022-07-22T12:41:45;96258.91;;;31.94;41.37
70141;BME280;57508;43.086;0.136;2022-07-22T12:44:21;96273.00;;;31.65;41.74
70141;BME280;57508;43.086;0.136;2022-07-22T12:46:47;96268.97;;;31.14;42.63
70141;BME280;57508;43.086;0.136;2022-07-22T12:49:13;96265.00;;;31.23;42.24
70141;BME280;57508;43.086;0.136;2022-07-22T12:51:39;96274.72;;;30.92;42.97
70141;BME280;57508;43.086;0.136;2022-07-22T12:54:05;96271.19;;;30.96;43.04
70141;BME280;57508;43.086;0.136;2022-07-22T12:56:30;96267.94;;;30.70;43.94
70141;BME280;57508;43.086;0.136;2022-07-22T12:58:56;96279.41;;;31.23;42.85
70141;BME280;57508;43.086;0.136;2022-07-22T13:01:21;96273.66;;;30.83;44.13
70141;BME280;57508;43.086;0.136;2022-07-22T13:03:46;96279.00;;;31.25;43.40
70141;BME280;57508;43.086;0.136;2022-07-22T13:06:12;96274.19;;;31.05;42.91
70141;BME280;57508;43.086;0.136;2022-07-22T13:08:37;96277.13;;;31.18;42.94
70141;BME280;57508;43.086;0.136;2022-07-22T13:11:02;96281.25;;;31.02;43.69
70141;BME280;57508;43.086;0.136;2022-07-22T13:13:28;96284.50;;;31.52;42.10